Time;durP1;ratioP1;P1;durP2;ratioP2;P2;SDS_P1;SDS_P2;PMS_P1;PMS_P2;Temp;Humidity;BMP_temperature;BMP_pressure;BME280_temperature;BME280_humidity;BME280_pressure;Samples;Min_cycle;Max_cycle;Signal;HPM_P1;HPM_P2
2022/05/12 00:00:56;;;;;;;10.90;6.70;;;;;;;14.01;81.55;99386.84;5124138;27;20032;-91
2022/05/12 00:03:22;;;;;;;16.20;7.97;;;;;;;13.91;82.22;99383.56;5125887;27;20061;-91
2022/05/12 00:05:47;;;;;;;12.75;6.93;;;;;;;13.98;82.03;99406.50;5124140;27;20055;-91
2022/05/12 00:08:13;;;;;;;13.65;7.35;;;;;;;13.94;82.33;99379.91;5122563;27;20039;-90
2022/05/12 00:10:42;;;;;;;15.63;7.00;;;;;;;13.94;81.23;99366.56;5124555;27;20039;-91
2022/05/12 00:13:08;;;;;;;16.33;8.00;;;;;;;14.00;81.18;99371.72;5124561;27;20046;-93
2022/05/12 00:15:37;;;;;;;16.08;8.48;;;;;;;14.09;80.95;99376.75;5127681;27;20035;-91
2022/05/12 00:18:06;;;;;;;13.88;7.30;;;;;;;14.09;80.77;99379.44;5129903;27;20063;-92
2022/05/12 00:20:34;;;;;;;14.52;7.57;;;;;;;14.16;80.43;99390.81;5124052;27;20043;-92
2022/05/12 00:23:09;;;;;;;11.00;6.90;;;;;;;14.05;81.20;99384.94;5123850;27;20023;-91
2022/05/12 00:25:35;;;;;;;12.55;7.30;;;;;;;14.12;80.45;99390.06;5127666;27;20354;-91
2022/05/12 00:28:01;;;;;;;14.10;7.40;;;;;;;14.09;79.84;99384.78;5126842;27;20040;-91
2022/05/12 00:30:27;;;;;;;14.32;6.63;;;;;;;14.08;79.58;99399.09;5124213;27;20393;-92
2022/05/12 00:32:54;;;;;;;14.35;6.78;;;;;;;13.87;81.10;99402.44;5123005;27;20031;-91
2022/05/12 00:35:20;;;;;;;12.15;6.88;;;;;;;13.70;82.10;99398.44;5122274;28;20051;-92
2022/05/12 00:37:46;;;;;;;12.75;7.18;;;;;;;13.57;83.13;99394.41;5129146;28;20504;-93
2022/05/12 00:40:14;;;;;;;14.57;7.57;;;;;;;13.70;82.24;99401.13;5122575;28;20416;-92
2022/05/12 00:42:53;;;;;;;16.02;8.35;;;;;;;13.43;83.50;99389.47;5126504;27;20059;-91
2022/05/12 00:45:18;;;;;;;;;;;;;;;13.45;84.33;99409.00;5119367;28;20044;-91
2022/05/12 00:47:44;;;;;;;12.52;7.45;;;;;;;13.27;83.81;99386.31;5130998;28;19968;-90
2022/05/12 00:50:12;;;;;;;15.43;7.75;;;;;;;13.42;83.81;99398.38;5122421;28;20385;-90
2022/05/12 00:52:38;;;;;;;13.95;7.10;;;;;;;13.38;82.73;99387.84;5125277;28;20040;-91
2022/05/12 00:55:07;;;;;;;11.02;7.30;;;;;;;13.45;82.78;99405.47;5129601;27;20039;-93
2022/05/12 00:57:37;;;;;;;14.07;7.47;;;;;;;13.20;83.88;99379.38;5131119;27;20392;-92
2022/05/12 01:00:06;;;;;;;15.93;8.38;;;;;;;13.17;84.63;99383.97;5129102;27;20035;-91
2022/05/12 01:02:34;;;;;;;18.13;7.40;;;;;;;13.25;83.37;99397.94;5129906;28;20054;-91
2022/05/12 01:05:00;;;;;;;15.35;7.40;;;;;;;13.16;84.01;99396.41;5118055;28;20100;-91
2022/05/12 01:07:28;;;;;;;14.50;7.55;;;;;;;13.08;83.47;99385.97;5121608;28;20047;-92
2022/05/12 01:09:54;;;;;;;12.23;7.07;;;;;;;13.18;82.71;99389.22;5125499;28;20508;-92
2022/05/12 01:12:20;;;;;;;10.75;7.10;;;;;;;13.27;82.37;99399.69;5127568;28;20032;-91
2022/05/12 01:14:46;;;;;;;16.08;7.80;;;;;;;13.10;82.95;99385.94;5125856;28;20608;-91
2022/05/12 01:17:12;;;;;;;12.27;7.10;;;;;;;13.08;82.27;99372.59;5127743;27;20035;-92
2022/05/12 01:19:40;;;;;;;13.60;6.80;;;;;;;12.97;82.30;99371.13;5121621;27;20042;-91
2022/05/12 01:22:09;;;;;;;13.07;7.65;;;;;;;12.98;83.24;99395.13;5122936;27;20077;-91
2022/05/12 01:24:39;;;;;;;14.20;7.75;;;;;;;12.84;83.90;99382.16;5128057;27;20069;-91
2022/05/12 01:30:04;;;;;;;16.15;7.80;;;;;;;12.82;84.00;99393.78;5089913;27;20402;-91
2022/05/12 01:32:30;;;;;;;13.70;7.18;;;;;;;12.71;84.33;99394.94;5089940;28;20052;-90
2022/05/12 01:34:56;;;;;;;14.75;7.78;;;;;;;12.73;83.65;99389.56;5090115;28;20049;-92
2022/05/12 01:37:23;;;;;;;15.23;8.25;;;;;;;12.69;83.83;99387.91;5090290;28;20043;-91
2022/05/12 01:39:49;;;;;;;12.02;7.68;;;;;;;12.67;83.32;99379.06;5089766;28;20151;-90
2022/05/12 01:42:15;;;;;;;13.98;7.22;;;;;;;12.62;83.45;99364.94;5089218;28;20510;-91
2022/05/12 01:44:42;;;;;;;14.50;7.68;;;;;;;12.68;83.98;99391.47;5091245;28;20128;-91
2022/05/12 01:47:10;;;;;;;15.00;7.97;;;;;;;12.57;83.53;99373.06;5090999;28;20078;-90
2022/05/12 01:49:36;;;;;;;13.55;7.18;;;;;;;12.67;84.15;99405.75;5089085;28;20079;-91
2022/05/12 01:52:04;;;;;;;15.27;8.65;;;;;;;12.65;84.27;99391.56;5089648;28;20063;-90
2022/05/12 01:54:30;;;;;;;13.90;7.50;;;;;;;12.53;84.89;99390.97;5089303;28;20076;-91
2022/05/12 01:56:56;;;;;;;14.27;8.20;;;;;;;12.54;85.29;99399.84;5090223;28;20492;-91
2022/05/12 01:59:23;;;;;;;16.02;8.27;;;;;;;12.41;85.83;99391.25;5090413;28;20064;-91
2022/05/12 02:01:49;;;;;;;14.07;8.00;;;;;;;12.33;86.53;99394.09;5089982;28;20393;-91
2022/05/12 02:04:17;;;;;;;15.98;8.50;;;;;;;12.28;86.74;99390.66;5091297;28;20044;-93
2022/05/12 02:06:45;;;;;;;18.75;8.02;;;;;;;12.24;86.58;99393.44;5091062;28;20063;-92
2022/05/12 02:09:11;;;;;;;15.82;7.95;;;;;;;12.32;86.47;99396.81;5089297;28;20039;-90
2022/05/12 02:11:38;;;;;;;17.83;8.95;;;;;;;12.12;87.14;99379.50;5089939;28;20040;-90
2022/05/12 02:14:04;;;;;;;14.88;8.23;;;;;;;12.31;86.61;99398.59;5089483;28;20040;-91
2022/05/12 02:16:31;;;;;;;14.05;7.82;;;;;;;12.20;86.40;99395.31;5090913;28;20122;-92
2022/05/12 02:18:57;;;;;;;12.93;8.38;;;;;;;12.08;88.16;99407.16;5090637;28;20020;-91
2022/05/12 02:21:24;;;;;;;17.55;8.45;;;;;;;12.11;88.10;99415.06;5089851;28;20058;-91
2022/05/12 02:23:50;;;;;;;14.65;8.50;;;;;;;12.28;87.20;99411.13;5088750;28;20420;-91
2022/05/12 02:26:17;;;;;;;17.85;8.32;;;;;;;12.27;86.97;99412.94;5087957;28;20043;-89
2022/05/12 02:28:42;;;;;;;13.55;8.32;;;;;;;12.27;86.91;99406.69;5086599;28;20052;-90
2022/05/12 02:31:08;;;;;;;16.70;8.15;;;;;;;12.22;86.67;99397.94;5087702;28;20036;-91
2022/05/12 02:33:34;;;;;;;17.17;8.70;;;;;;;12.28;86.78;99408.47;5087469;28;20089;-91
2022/05/12 02:36:02;;;;;;;16.80;7.90;;;;;;;12.12;87.32;99386.59;5088160;28;20067;-92
2022/05/12 02:38:29;;;;;;;17.52;7.97;;;;;;;12.07;87.68;99405.38;5088530;28;20036;-92
2022/05/12 02:40:55;;;;;;;15.15;8.20;;;;;;;12.07;88.32;99415.16;5078208;28;20040;-92
2022/05/12 02:43:24;;;;;;;15.00;8.10;;;;;;;12.04;87.96;99409.91;5077002;28;20035;-91
2022/05/12 02:45:51;;;;;;;13.50;8.13;;;;;;;11.93;87.78;99396.84;5076141;28;20040;-92
2022/05/12 02:48:18;;;;;;;15.63;8.30;;;;;;;11.91;88.08;99410.19;5076105;28;20146;-92
2022/05/12 02:50:43;;;;;;;16.02;8.48;;;;;;;11.85;88.47;99404.94;5076848;28;20051;-91
2022/05/12 02:53:09;;;;;;;15.93;7.78;;;;;;;11.85;88.55;99404.09;5076712;28;20040;-91
2022/05/12 02:55:36;;;;;;;15.35;7.95;;;;;;;11.75;89.74;99399.84;5076894;28;20437;-92
2022/05/12 02:58:02;;;;;;;17.08;8.57;;;;;;;11.82;90.09;99425.44;5075349;28;20037;-93
2022/05/12 03:00:28;;;;;;;16.73;8.35;;;;;;;11.68;90.20;99413.31;5076708;28;20074;-92
2022/05/12 03:02:54;;;;;;;17.98;8.48;;;;;;;11.72;90.40;99417.66;5076793;28;20032;-91
2022/05/12 03:05:20;;;;;;;16.48;8.25;;;;;;;11.80;90.33;99425.50;5075441;28;20052;-92
2022/05/12 03:07:45;;;;;;;17.80;8.82;;;;;;;11.64;90.77;99416.94;5075918;28;20055;-93
2022/05/12 03:10:15;;;;;;;19.67;9.23;;;;;;;11.65;91.40;99421.38;5074022;28;20491;-93
2022/05/12 03:12:42;;;;;;;;;;;;;;;11.70;91.54;99432.81;5076759;28;20068;-92
2022/05/12 03:15:08;;;;;;;14.77;8.15;;;;;;;11.54;91.55;99404.75;5076400;28;19959;-92
2022/05/12 03:17:35;;;;;;;18.40;8.52;;;;;;;11.67;91.55;99437.34;5075346;28;20090;-92
2022/05/12 03:20:01;;;;;;;21.02;9.80;;;;;;;11.60;92.21;99425.94;5075162;28;20036;-92
2022/05/12 03:22:27;;;;;;;21.75;10.40;;;;;;;11.62;92.08;99429.41;5073979;28;20102;-93
2022/05/12 03:24:53;;;;;;;20.30;10.68;;;;;;;11.59;92.84;99420.63;5076459;28;20047;-92
2022/05/12 03:27:19;;;;;;;20.80;10.30;;;;;;;11.65;93.62;99440.03;5076644;28;20036;-92
2022/05/12 03:29:46;;;;;;;46.95;12.15;;;;;;;11.70;92.56;99442.59;5075591;28;20094;-90
2022/05/12 03:32:12;;;;;;;19.17;10.15;;;;;;;11.67;92.71;99435.53;5075519;28;20039;-91
2022/05/12 03:34:39;;;;;;;22.63;10.77;;;;;;;11.38;94.65;99422.81;5076235;28;20044;-92
2022/05/12 03:37:05;;;;;;;21.88;10.73;;;;;;;11.45;95.04;99442.19;5076744;28;20044;-91
2022/05/12 03:39:31;;;;;;;25.33;11.07;;;;;;;11.45;95.06;99450.19;5076487;28;20494;-92
2022/05/12 03:41:57;;;;;;;26.45;10.88;;;;;;;11.38;95.06;99444.09;5076313;28;20059;-91
2022/05/12 03:47:19;;;;;;;24.85;10.50;;;;;;;11.50;94.85;99459.84;5116035;27;1414807;-93
2022/05/12 03:49:45;;;;;;;25.23;11.20;;;;;;;11.41;95.00;99433.41;5145690;27;20054;-93
2022/05/12 03:52:12;;;;;;;20.52;10.30;;;;;;;11.51;94.49;99458.06;5141378;27;20065;-92
2022/05/12 03:54:39;;;;;;;21.15;10.60;;;;;;;11.39;94.51;99443.22;5137754;27;20107;-92
2022/05/12 03:57:06;;;;;;;22.35;11.55;;;;;;;11.40;94.66;99452.06;5141410;27;20078;-93
2022/05/12 03:59:32;;;;;;;18.33;10.38;;;;;;;11.38;94.95;99445.91;5143975;27;20384;-92
2022/05/12 04:01:58;;;;;;;20.88;10.48;;;;;;;11.39;95.67;99455.66;5145454;27;20048;-92
2022/05/12 04:04:29;;;;;;;20.55;10.60;;;;;;;11.33;94.64;99440.66;5152230;27;20122;-92
2022/05/12 04:06:58;;;;;;;23.83;10.98;;;;;;;11.30;95.19;99436.28;5144630;27;20031;-91
2022/05/12 04:09:24;;;;;;;23.10;10.65;;;;;;;11.45;95.04;99460.84;5144559;27;20484;-93
2022/05/12 04:11:49;;;;;;;20.50;10.23;;;;;;;11.53;95.33;99466.91;5146158;27;20046;-93
2022/05/12 04:14:15;;;;;;;23.33;10.77;;;;;;;11.54;94.42;99465.09;5146181;27;20378;-93
2022/05/12 04:16:41;;;;;;;19.23;9.45;;;;;;;11.49;93.74;99457.22;5140534;27;20457;-92
2022/05/12 04:19:07;;;;;;;22.15;10.65;;;;;;;11.47;95.16;99462.59;5143073;27;20046;-93
2022/05/12 04:21:34;;;;;;;20.92;10.25;;;;;;;11.47;94.58;99467.00;5141510;27;20502;-92
2022/05/12 04:24:00;;;;;;;23.33;11.68;;;;;;;11.55;94.46;99472.22;5145578;27;20059;-94
2022/05/12 04:26:26;;;;;;;21.95;10.50;;;;;;;11.43;94.46;99449.38;5142725;27;20035;-94
2022/05/12 04:28:52;;;;;;;19.05;9.82;;;;;;;11.49;94.31;99459.88;5141108;27;20043;-93
2022/05/12 04:31:18;;;;;;;17.98;10.13;;;;;;;11.54;94.96;99463.34;5139597;27;20557;-92
2022/05/12 04:36:39;;;;;;;20.83;10.15;;;;;;;11.67;94.90;99479.97;5126529;27;20383;-93
2022/05/12 04:39:06;;;;;;;20.55;10.15;;;;;;;11.69;94.96;99484.34;5127669;28;20552;-92
2022/05/12 04:41:32;;;;;;;23.02;10.85;;;;;;;11.68;95.21;99471.03;5124269;28;20489;-91
2022/05/12 04:43:59;;;;;;;21.42;10.55;;;;;;;11.79;95.77;99484.16;5124010;28;20043;-93
2022/05/12 04:46:25;;;;;;;21.98;10.70;;;;;;;11.80;95.16;99476.13;5121223;27;20039;-93
2022/05/12 04:48:52;;;;;;;17.75;10.07;;;;;;;11.83;95.52;99465.41;5124463;27;20047;-93
2022/05/12 04:51:19;;;;;;;22.45;10.80;;;;;;;11.98;94.00;99474.03;5122196;27;20031;-92
2022/05/12 04:53:46;;;;;;;21.20;10.13;;;;;;;11.98;93.78;99474.91;5120140;28;20400;-93
2022/05/12 04:56:13;;;;;;;18.90;10.23;;;;;;;12.01;93.68;99480.16;5126266;28;20109;-91
2022/05/12 04:58:39;;;;;;;20.33;11.02;;;;;;;12.02;94.47;99481.03;5124121;28;20051;-92
2022/05/12 05:01:05;;;;;;;22.20;10.57;;;;;;;12.11;94.01;99476.38;5118319;28;20515;-92
2022/05/12 05:03:31;;;;;;;24.42;10.95;;;;;;;12.59;92.48;99472.63;5121924;28;20059;-91
2022/05/12 05:05:58;;;;;;;17.98;9.90;;;;;;;13.09;89.77;99466.94;5127693;28;20039;-91
2022/05/12 05:08:24;;;;;;;18.50;9.95;;;;;;;13.53;86.21;99460.44;5120779;28;20036;-92
2022/05/12 05:10:53;;;;;;;23.02;11.20;;;;;;;13.88;84.34;99469.22;5123609;28;20116;-91
2022/05/12 05:13:19;;;;;;;;;;;;;;;14.25;82.27;99473.47;5129832;27;20074;-91
2022/05/12 05:15:45;;;;;;;32.85;15.48;;;;;;;14.44;80.34;99470.22;5116996;28;19951;-92
2022/05/12 05:18:13;;;;;;;54.17;22.33;;;;;;;14.56;77.63;99448.44;5122675;27;20051;-91
2022/05/12 05:20:39;;;;;;;42.08;17.40;;;;;;;14.82;76.90;99458.28;5125096;28;20038;-90
2022/05/12 05:23:05;;;;;;;36.03;16.02;;;;;;;15.04;75.52;99463.78;5121876;27;20044;-91
2022/05/12 05:25:32;;;;;;;31.95;14.02;;;;;;;15.35;74.14;99471.66;5122279;27;20036;-91
2022/05/12 05:27:59;;;;;;;19.20;11.00;;;;;;;15.52;72.75;99464.81;5121406;28;20783;-93
2022/05/12 05:30:25;;;;;;;23.80;10.90;;;;;;;15.76;71.54;99469.28;5124876;28;20096;-93
2022/05/12 05:32:52;;;;;;;21.38;11.63;;;;;;;16.02;70.96;99484.41;5126607;28;20031;-93
2022/05/12 05:35:19;;;;;;;22.60;11.43;;;;;;;16.17;69.78;99477.59;5117433;27;20046;-92
2022/05/12 05:37:45;;;;;;;19.45;9.90;;;;;;;16.51;68.79;99487.00;5124489;27;20084;-91
2022/05/12 05:40:14;;;;;;;21.52;10.27;;;;;;;16.57;68.47;99461.75;5121534;28;20096;-92
2022/05/12 05:42:41;;;;;;;20.38;10.25;;;;;;;16.72;68.36;99468.28;5124078;28;20036;-93
2022/05/12 05:45:15;;;;;;;23.45;10.88;;;;;;;16.76;67.44;99464.53;5128035;27;20039;-93
2022/05/12 05:47:45;;;;;;;20.13;10.40;;;;;;;17.01;66.61;99470.66;5115303;28;20035;-93
2022/05/12 05:50:12;;;;;;;20.48;9.63;;;;;;;17.16;65.66;99479.88;5109202;28;20130;-91
2022/05/12 05:55:37;;;;;;;19.23;10.50;;;;;;;17.19;66.41;99474.38;5152335;27;20747;-93
2022/05/12 05:58:05;;;;;;;17.23;9.30;;;;;;;17.37;65.32;99470.03;5150342;27;20074;-93
2022/05/12 06:00:31;;;;;;;18.05;9.23;;;;;;;17.52;64.82;99478.34;5153298;27;20043;-93
2022/05/12 06:02:58;;;;;;;19.55;10.15;;;;;;;17.50;65.71;99467.69;5153041;27;20039;-90
2022/05/12 06:05:23;;;;;;;20.38;10.32;;;;;;;17.64;65.04;99481.38;5150095;27;20039;-90
2022/05/12 06:07:50;;;;;;;18.70;10.23;;;;;;;17.42;65.16;99462.63;5152150;27;20035;-90
2022/05/12 06:10:16;;;;;;;18.13;10.80;;;;;;;17.44;66.42;99465.25;5152269;27;20042;-94
2022/05/12 06:12:43;;;;;;;19.38;10.35;;;;;;;17.51;66.22;99476.63;5154757;27;20050;-93
2022/05/12 06:15:13;;;;;;;22.92;10.70;;;;;;;17.49;66.15;99467.75;5148070;27;20035;-93
2022/05/12 06:17:38;;;;;;;20.05;10.48;;;;;;;17.54;65.36;99454.94;5150489;27;20062;-94
2022/05/12 06:20:06;;;;;;;22.05;10.45;;;;;;;17.81;65.09;99469.84;5151581;27;20059;-94
2022/05/12 06:22:32;;;;;;;17.77;10.38;;;;;;;17.79;65.53;99476.25;5149080;27;20043;-93
2022/05/12 06:24:58;;;;;;;20.85;10.63;;;;;;;17.76;65.21;99465.63;5154102;27;20033;-95
2022/05/12 06:27:24;;;;;;;19.88;10.23;;;;;;;17.82;65.09;99482.38;5150578;27;20050;-95
2022/05/12 06:29:52;;;;;;;18.85;9.90;;;;;;;17.73;65.41;99469.31;5155885;27;20042;-96
2022/05/12 06:32:18;;;;;;;25.15;11.70;;;;;;;17.79;65.50;99471.75;5155534;27;20129;-91
2022/05/12 06:34:46;;;;;;;19.52;10.32;;;;;;;18.00;64.97;99495.94;5155065;27;20041;-92
2022/05/12 06:37:12;;;;;;;22.17;11.65;;;;;;;17.99;64.91;99488.81;5156501;27;20050;-92
2022/05/12 06:39:38;;;;;;;99.10;25.45;;;;;;;18.13;65.73;99496.25;5154843;27;20369;-93
2022/05/12 06:42:05;;;;;;;32.97;12.07;;;;;;;18.17;64.51;99487.09;5142127;27;20040;-93
2022/05/12 06:44:32;;;;;;;21.13;11.10;;;;;;;18.16;63.29;99461.13;5153896;27;20045;-94
2022/05/12 06:47:00;;;;;;;17.23;9.55;;;;;;;18.42;63.22;99481.44;5156571;27;20043;-93
2022/05/12 06:49:28;;;;;;;17.05;9.63;;;;;;;18.59;62.18;99483.31;5157890;27;20122;-93
2022/05/12 06:51:55;;;;;;;18.35;10.15;;;;;;;18.55;62.36;99473.63;5154222;27;20095;-92
2022/05/12 06:54:22;;;;;;;17.00;10.05;;;;;;;18.77;60.82;99482.41;5149689;27;20104;-93
2022/05/12 06:56:48;;;;;;;24.42;10.73;;;;;;;18.83;60.68;99476.75;5149405;27;20035;-92
2022/05/12 06:59:15;;;;;;;22.83;11.15;;;;;;;18.77;59.87;99466.22;5152730;27;20088;-93
2022/05/12 07:01:41;;;;;;;19.58;10.73;;;;;;;18.95;60.16;99475.25;5150844;27;20038;-92
2022/05/12 07:04:08;;;;;;;16.90;9.90;;;;;;;19.06;59.41;99481.00;5149600;27;20028;-92
2022/05/12 07:06:34;;;;;;;20.65;10.23;;;;;;;19.09;60.24;99472.72;5140145;27;20488;-91
2022/05/12 07:08:59;;;;;;;22.15;10.35;;;;;;;19.17;59.36;99466.97;5135408;27;20039;-92
2022/05/12 07:11:25;;;;;;;22.00;11.02;;;;;;;19.35;59.11;99473.22;5134530;27;20035;-92
2022/05/12 07:13:51;;;;;;;23.52;10.43;;;;;;;19.48;58.93;99466.25;5136580;27;20126;-90
2022/05/12 07:16:17;;;;;;;16.92;10.32;;;;;;;19.46;58.86;99460.03;5135893;27;20054;-90
2022/05/12 07:18:43;;;;;;;16.10;9.27;;;;;;;19.57;57.88;99461.31;5137148;27;20039;-92
2022/05/12 07:27:12;;;;;;;15.75;7.57;;;;;;;20.28;54.04;99470.06;5107192;27;20382;-92
2022/05/12 07:29:38;;;;;;;19.98;8.77;;;;;;;20.37;52.69;99465.09;5092712;28;20047;-91
2022/05/12 07:32:05;;;;;;;17.77;8.75;;;;;;;20.40;53.24;99467.63;5092791;28;20363;-90
2022/05/12 07:34:31;;;;;;;14.95;8.55;;;;;;;20.33;52.92;99460.81;5098277;28;20044;-90
2022/05/12 07:36:57;;;;;;;17.75;8.68;;;;;;;20.20;53.68;99455.22;5094780;28;20182;-92
2022/05/12 07:39:27;;;;;;;14.38;8.35;;;;;;;20.40;52.50;99470.31;5092495;28;20393;-92
2022/05/12 07:41:53;;;;;;;13.05;8.20;;;;;;;20.48;52.02;99473.47;5095983;28;20044;-93
2022/05/12 07:44:20;;;;;;;16.83;8.70;;;;;;;20.70;51.81;99444.28;5096481;28;20024;-93
2022/05/12 07:46:47;;;;;;;17.38;8.50;;;;;;;20.68;50.69;99451.59;5094803;28;20024;-92
2022/05/12 07:49:14;;;;;;;16.80;8.65;;;;;;;20.81;52.07;99467.13;5099342;28;20454;-90
2022/05/12 07:51:40;;;;;;;13.98;8.32;;;;;;;20.97;51.57;99465.28;5098393;28;20027;-93
2022/05/12 07:54:06;;;;;;;17.30;9.77;;;;;;;20.56;51.03;99449.59;5098947;28;20077;-92
2022/05/12 07:56:31;;;;;;;16.92;9.43;;;;;;;19.73;54.10;99473.06;5095215;28;20060;-91
2022/05/12 07:58:59;;;;;;;12.75;8.18;;;;;;;20.26;54.13;99469.25;5094233;28;20066;-92
2022/05/12 08:01:27;;;;;;;17.80;8.00;;;;;;;20.65;52.67;99459.88;5097766;28;20044;-91
2022/05/12 08:03:53;;;;;;;14.00;8.03;;;;;;;20.99;50.41;99455.25;5093444;28;20402;-91
2022/05/12 08:06:20;;;;;;;13.75;7.88;;;;;;;21.22;51.43;99458.41;5095678;28;20291;-92
2022/05/12 08:08:48;;;;;;;15.15;7.82;;;;;;;21.30;50.81;99456.09;5099033;28;20068;-91
2022/05/12 08:11:14;;;;;;;20.50;8.68;;;;;;;21.58;50.23;99467.97;5098644;28;20050;-92
2022/05/12 08:13:45;;;;;;;16.55;8.40;;;;;;;21.67;50.13;99462.00;5090821;28;20068;-92
2022/05/12 08:16:11;;;;;;;17.83;8.65;;;;;;;21.77;48.42;99463.16;5094004;28;20036;-93
2022/05/12 08:18:38;;;;;;;14.68;8.32;;;;;;;21.91;49.49;99456.91;5095674;28;20127;-91
2022/05/12 08:21:05;;;;;;;13.18;7.82;;;;;;;22.09;48.47;99455.72;5093905;28;20047;-92
2022/05/12 08:23:31;;;;;;;14.55;7.95;;;;;;;22.35;47.49;99470.34;5094202;28;20516;-92
2022/05/12 08:25:57;;;;;;;15.43;8.48;;;;;;;20.91;48.92;99471.03;5100004;28;20052;-92
2022/05/12 08:28:24;;;;;;;14.35;7.88;;;;;;;21.11;49.94;99459.91;5094467;28;20037;-91
2022/05/12 08:30:51;;;;;;;15.68;8.32;;;;;;;21.53;48.49;99461.03;5093386;28;20097;-91
2022/05/12 08:33:18;;;;;;;12.43;8.45;;;;;;;21.65;47.15;99480.19;5096195;28;20074;-92
2022/05/12 08:35:45;;;;;;;14.50;8.00;;;;;;;21.63;48.02;99466.72;5098917;28;20032;-91
2022/05/12 08:38:12;;;;;;;17.15;7.65;;;;;;;21.70;47.78;99462.66;5083222;28;20047;-92
2022/05/12 08:40:48;;;;;;;16.00;8.05;;;;;;;22.05;46.45;99477.69;5079930;28;20093;-92
2022/05/12 08:43:16;;;;;;;16.02;7.70;;;;;;;22.22;46.67;99463.06;5080638;28;20039;-93
2022/05/12 08:45:44;;;;;;;15.17;8.17;;;;;;;22.61;45.35;99478.63;5081830;28;20033;-93
2022/05/12 08:48:12;;;;;;;15.37;7.93;;;;;;;22.76;44.85;99474.03;5077358;28;20128;-93
2022/05/12 08:50:40;;;;;;;16.45;8.05;;;;;;;22.74;44.20;99476.84;5080011;28;20041;-90
2022/05/12 08:53:12;;;;;;;16.57;7.57;;;;;;;22.07;46.74;99476.63;5076253;28;20033;-91
2022/05/12 08:55:44;;;;;;;16.90;8.15;;;;;;;22.19;45.99;99466.84;5085812;28;20032;-92
2022/05/12 08:58:18;;;;;;;14.18;7.15;;;;;;;22.63;44.94;99475.81;5079084;28;20127;-93
2022/05/12 09:00:51;;;;;;;12.35;7.32;;;;;;;22.76;45.32;99476.75;5076261;28;20051;-92
2022/05/12 09:03:26;;;;;;;13.65;7.38;;;;;;;22.98;44.12;99468.91;5081285;28;20047;-92
2022/05/12 09:05:58;;;;;;;13.88;7.90;;;;;;;22.21;45.47;99462.22;5079201;28;21280;-92
2022/05/12 09:08:34;;;;;;;14.10;7.55;;;;;;;22.53;45.43;99457.44;5082732;28;20082;-90
2022/05/12 09:11:04;;;;;;;10.75;7.00;;;;;;;22.75;44.58;99472.31;5077185;28;20041;-91
2022/05/12 09:13:33;;;;;;;18.08;7.22;;;;;;;23.02;44.57;99460.63;5083384;28;20047;-90
2022/05/12 09:16:08;;;;;;;15.43;7.25;;;;;;;23.25;44.00;99475.31;5080466;28;20115;-91
2022/05/12 09:18:36;;;;;;;16.15;6.80;;;;;;;23.28;43.21;99464.25;5081351;28;20514;-91
2022/05/12 09:21:04;;;;;;;12.90;6.90;;;;;;;23.42;43.46;99472.34;5084353;28;20146;-94
2022/05/12 09:23:31;;;;;;;17.20;6.68;;;;;;;23.10;43.02;99469.97;5081521;28;20066;-95
2022/05/12 09:25:57;;;;;;;13.98;6.90;;;;;;;22.66;44.35;99465.66;5079446;28;20057;-91
2022/05/12 09:28:29;;;;;;;11.40;6.40;;;;;;;22.85;43.20;99465.28;5082509;28;20497;-92
2022/05/12 09:30:59;;;;;;;11.68;6.50;;;;;;;23.25;42.88;99459.03;5075987;28;20044;-94
2022/05/12 09:33:31;;;;;;;11.15;6.13;;;;;;;23.57;42.43;99468.56;5080267;28;20040;-92
2022/05/12 09:35:59;;;;;;;11.57;6.28;;;;;;;23.58;41.85;99464.84;5080371;28;20041;-94
2022/05/12 09:38:26;;;;;;;11.93;6.82;;;;;;;23.90;42.14;99463.59;5078240;28;20517;-92
2022/05/12 09:40:55;;;;;;;11.77;6.68;;;;;;;23.61;41.71;99450.19;5080135;28;20047;-90
2022/05/12 09:43:26;;;;;;;12.75;6.32;;;;;;;23.09;43.04;99461.94;5089358;28;20033;-91
2022/05/12 09:46:02;;;;;;;12.02;6.63;;;;;;;23.01;43.29;99458.84;5077562;28;20054;-91
2022/05/12 09:48:31;;;;;;;11.15;6.05;;;;;;;23.31;42.89;99435.09;5084359;28;20041;-93
2022/05/12 09:51:13;;;;;;;10.93;6.40;;;;;;;23.54;42.08;99444.31;5081780;28;20057;-91
2022/05/12 09:53:40;;;;;;;10.10;6.00;;;;;;;23.87;42.00;99444.81;5074759;28;20086;-90
2022/05/12 09:56:11;;;;;;;13.27;6.55;;;;;;;24.08;41.66;99445.97;5075695;28;20036;-92
2022/05/12 09:58:39;;;;;;;19.58;6.82;;;;;;;24.29;40.73;99431.78;5082684;28;20044;-91
2022/05/12 10:01:17;;;;;;;12.40;5.65;;;;;;;24.50;38.42;99434.81;5078960;28;20040;-91
2022/05/12 10:10:09;;;;;;;10.13;4.38;;;;;;;24.16;36.11;99421.84;5155304;27;20122;-91
2022/05/12 10:12:40;;;;;;;10.50;4.55;;;;;;;24.24;37.14;99423.97;5155832;27;20034;-91
2022/05/12 10:15:16;;;;;;;10.50;5.10;;;;;;;24.52;36.07;99413.84;5154910;27;20126;-90
2022/05/12 10:17:45;;;;;;;12.82;4.90;;;;;;;24.73;35.07;99404.06;5155431;27;20043;-89
2022/05/12 10:20:14;;;;;;;11.30;4.88;;;;;;;24.76;34.26;99435.59;5152655;27;20043;-91
2022/05/12 10:22:45;;;;;;;9.13;4.15;;;;;;;24.58;35.38;99411.53;5155000;27;20039;-93
2022/05/12 10:25:20;;;;;;;8.32;4.10;;;;;;;24.83;35.36;99406.97;5155175;27;20437;-92
2022/05/12 10:27:53;;;;;;;9.02;3.88;;;;;;;24.21;33.34;99431.50;5157253;27;20078;-93
2022/05/12 10:30:26;;;;;;;8.07;3.90;;;;;;;23.69;33.75;99409.78;5160707;27;20057;-96
2022/05/12 10:33:09;;;;;;;6.97;3.92;;;;;;;23.94;34.16;99430.69;5155115;27;20106;-94
2022/05/12 10:35:39;;;;;;;7.47;4.07;;;;;;;24.05;33.53;99426.31;5153265;27;20133;-95
2022/05/12 10:38:09;;;;;;;7.85;3.97;;;;;;;23.87;34.05;99413.06;5157234;27;20039;-94
2022/05/12 10:40:41;;;;;;;8.75;3.95;;;;;;;24.04;32.77;99402.84;5154087;27;20042;-94
2022/05/12 10:43:22;;;;;;;11.70;4.57;;;;;;;24.05;33.66;99421.75;5160122;27;20050;-93
2022/05/12 10:45:59;;;;;;;9.95;4.28;;;;;;;23.96;33.21;99407.00;5156140;27;20045;-94
2022/05/12 10:48:38;;;;;;;7.88;3.53;;;;;;;24.08;32.21;99421.53;5154774;27;20519;-94
2022/05/12 10:51:17;;;;;;;8.07;3.85;;;;;;;24.25;32.21;99398.56;5164530;27;20548;-94
2022/05/12 10:53:54;;;;;;;7.82;4.25;;;;;;;24.23;33.17;99397.81;5159303;27;20032;-96
2022/05/12 10:56:34;;;;;;;7.57;3.58;;;;;;;24.35;33.38;99385.13;5162058;27;20484;-92
2022/05/12 10:59:26;;;;;;;7.93;3.97;;;;;;;24.52;34.34;99382.06;5158401;27;20027;-93
2022/05/12 11:01:57;;;;;;;9.13;4.20;;;;;;;24.84;33.42;99356.16;5154082;27;20039;-93
2022/05/12 11:04:28;;;;;;;7.22;4.13;;;;;;;25.08;33.75;99386.88;5165215;27;20042;-91
2022/05/12 11:06:58;;;;;;;9.50;4.55;;;;;;;25.12;32.64;99395.69;5155821;27;20035;-93
2022/05/12 11:09:29;;;;;;;8.60;4.10;;;;;;;24.77;34.54;99383.81;5156319;27;20066;-92
2022/05/12 11:12:03;;;;;;;15.70;4.65;;;;;;;24.54;34.68;99369.22;5154323;27;20551;-92
2022/05/12 11:14:33;;;;;;;10.02;4.50;;;;;;;24.69;34.31;99388.09;5152159;27;20091;-94
2022/05/12 11:17:06;;;;;;;10.38;5.13;;;;;;;24.30;34.12;99357.44;5166641;27;20376;-91
2022/05/12 11:19:32;;;;;;;14.15;4.95;;;;;;;24.76;35.05;99375.75;5150140;27;20050;-94
2022/05/12 11:22:07;;;;;;;9.90;4.05;;;;;;;24.83;33.53;99363.44;5145244;27;20121;-93
2022/05/12 11:24:46;;;;;;;9.85;4.95;;;;;;;24.85;34.27;99360.59;5149579;27;20072;-94
2022/05/12 11:27:44;;;;;;;11.45;5.22;;;;;;;24.37;34.00;99381.31;5148646;27;20083;-93
2022/05/12 11:30:29;;;;;;;11.98;4.60;;;;;;;24.27;33.99;99363.13;5145896;27;20043;-94
2022/05/12 11:33:09;;;;;;;8.18;4.00;;;;;;;24.83;34.33;99365.28;5135606;27;20438;-91
2022/05/12 11:35:43;;;;;;;9.85;4.45;;;;;;;24.98;31.08;99373.16;5137300;27;20031;-93
2022/05/12 11:38:30;;;;;;;10.88;4.40;;;;;;;25.04;30.35;99358.19;5146005;27;20039;-93
2022/05/12 11:40:57;;;;;;;9.48;4.18;;;;;;;24.88;32.99;99350.34;5136755;27;20063;-94
2022/05/12 11:47:06;;;;;;;8.23;4.30;;;;;;;24.80;30.22;99361.81;5119121;27;20365;-91
2022/05/12 11:49:44;;;;;;;6.47;4.20;;;;;;;24.80;29.77;99363.66;5126788;28;20528;-92
2022/05/12 11:52:33;;;;;;;10.07;4.60;;;;;;;24.96;30.62;99341.56;5116496;28;20039;-93
2022/05/12 11:55:02;;;;;;;9.13;4.40;;;;;;;24.70;31.34;99329.97;5118085;28;20419;-91
2022/05/12 11:57:32;;;;;;;11.15;4.47;;;;;;;25.02;30.29;99335.66;5118776;27;20138;-94